sensor_id;sensor_type;location;lat;lon;timestamp;P1;durP1;ratioP1;P2;durP2;ratioP2
9783;SDS011;4931;44.874;-1.092;2023-05-10T00:01:10;19.75;;;3.60;;
9783;SDS011;4931;44.874;-1.092;2023-05-10T00:03:36;16.83;;;2.83;;
9783;SDS011;4931;44.874;-1.092;2023-05-10T00:06:01;18.92;;;2.70;;
9783;SDS011;4931;44.874;-1.092;2023-05-10T00:08:27;21.90;;;2.88;;
9783;SDS011;4931;44.874;-1.092;2023-05-10T00:10:53;19.73;;;2.92;;
9783;SDS011;4931;44.874;-1.092;2023-05-10T00:13:18;21.30;;;3.03;;
9783;SDS011;4931;44.874;-1.092;2023-05-10T00:15:44;21.15;;;2.95;;
9783;SDS011;4931;44.874;-1.092;2023-05-10T00:18:09;24.25;;;3.10;;
9783;SDS011;4931;44.874;-1.092;2023-05-10T00:20:35;23.58;;;3.65;;
9783;SDS011;4931;44.874;-1.092;2023-05-10T00:23:00;23.42;;;3.72;;
9783;SDS011;4931;44.874;-1.092;2023-05-10T00:25:26;25.02;;;3.45;;
9783;SDS011;4931;44.874;-1.092;2023-05-10T00:27:51;22.17;;;3.38;;
9783;SDS011;4931;44.874;-1.092;2023-05-10T00:30:17;19.60;;;2.97;;
9783;SDS011;4931;44.874;-1.092;2023-05-10T00:32:43;26.60;;;3.33;;
9783;SDS011;4931;44.874;-1.092;2023-05-10T00:35:08;21.80;;;2.80;;
9783;SDS011;4931;44.874;-1.092;2023-05-10T00:37:34;24.25;;;3.45;;
9783;SDS011;4931;44.874;-1.092;2023-05-10T00:40:00;24.88;;;3.78;;
9783;SDS011;4931;44.874;-1.092;2023-05-10T00:42:25;27.50;;;3.78;;
9783;SDS011;4931;44.874;-1.092;2023-05-10T00:44:51;24.27;;;3.75;;
9783;SDS011;4931;44.874;-1.092;2023-05-10T00:47:16;27.92;;;3.20;;
9783;SDS011;4931;44.874;-1.092;2023-05-10T00:49:42;27.00;;;4.13;;
9783;SDS011;4931;44.874;-1.092;2023-05-10T00:52:08;24.00;;;3.05;;
9783;SDS011;4931;44.874;-1.092;2023-05-10T00:54:34;25.80;;;3.38;;
9783;SDS011;4931;44.874;-1.092;2023-05-10T00:57:00;21.13;;;3.00;;
9783;SDS011;4931;44.874;-1.092;2023-05-10T00:59:26;21.33;;;3.03;;
9783;SDS011;4931;44.874;-1.092;2023-05-10T01:01:52;20.58;;;3.30;;
9783;SDS011;4931;44.874;-1.092;2023-05-10T01:04:18;28.15;;;3.58;;
9783;SDS011;4931;44.874;-1.092;2023-05-10T01:06:45;29.25;;;3.67;;
9783;SDS011;4931;44.874;-1.092;2023-05-10T01:09:11;28.98;;;3.78;;
9783;SDS011;4931;44.874;-1.092;2023-05-10T01:11:37;23.35;;;3.85;;
9783;SDS011;4931;44.874;-1.092;2023-05-10T01:14:05;23.23;;;3.78;;
9783;SDS011;4931;44.874;-1.092;2023-05-10T01:16:40;25.65;;;3.60;;
9783;SDS011;4931;44.874;-1.092;2023-05-10T01:19:23;29.88;;;4.45;;
9783;SDS011;4931;44.874;-1.092;2023-05-10T01:33:11;26.90;;;4.00;;
9783;SDS011;4931;44.874;-1.092;2023-05-10T01:35:42;30.65;;;3.55;;
9783;SDS011;4931;44.874;-1.092;2023-05-10T01:38:57;22.35;;;3.95;;
9783;SDS011;4931;44.874;-1.092;2023-05-10T01:41:36;24.65;;;3.10;;
9783;SDS011;4931;44.874;-1.092;2023-05-10T01:43:55;21.98;;;3.63;;
9783;SDS011;4931;44.874;-1.092;2023-05-10T01:46:36;25.58;;;3.33;;
9783;SDS011;4931;44.874;-1.092;2023-05-10T01:49:03;21.48;;;2.95;;
9783;SDS011;4931;44.874;-1.092;2023-05-10T01:51:44;21.70;;;3.20;;
9783;SDS011;4931;44.874;-1.092;2023-05-10T01:54:13;31.67;;;3.67;;
9783;SDS011;4931;44.874;-1.092;2023-05-10T01:56:42;21.10;;;3.40;;
9783;SDS011;4931;44.874;-1.092;2023-05-10T01:59:13;24.65;;;3.28;;
9783;SDS011;4931;44.874;-1.092;2023-05-10T02:01:43;22.40;;;3.08;;
9783;SDS011;4931;44.874;-1.092;2023-05-10T02:04:10;23.20;;;3.67;;
9783;SDS011;4931;44.874;-1.092;2023-05-10T02:06:39;21.88;;;3.25;;
9783;SDS011;4931;44.874;-1.092;2023-05-10T02:09:07;33.75;;;4.15;;
9783;SDS011;4931;44.874;-1.092;2023-05-10T02:11:37;23.35;;;2.83;;
9783;SDS011;4931;44.874;-1.092;2023-05-10T02:14:04;20.52;;;3.50;;
9783;SDS011;4931;44.874;-1.092;2023-05-10T02:16:35;21.60;;;3.45;;
9783;SDS011;4931;44.874;-1.092;2023-05-10T02:19:03;24.35;;;3.33;;
9783;SDS011;4931;44.874;-1.092;2023-05-10T02:21:29;20.98;;;3.55;;
9783;SDS011;4931;44.874;-1.092;2023-05-10T02:23:56;19.27;;;3.72;;
9783;SDS011;4931;44.874;-1.092;2023-05-10T02:26:23;23.08;;;3.60;;
9783;SDS011;4931;44.874;-1.092;2023-05-10T02:28:51;23.23;;;3.47;;
9783;SDS011;4931;44.874;-1.092;2023-05-10T02:31:18;20.73;;;3.40;;
9783;SDS011;4931;44.874;-1.092;2023-05-10T02:33:45;18.23;;;2.85;;
9783;SDS011;4931;44.874;-1.092;2023-05-10T02:36:12;36.00;;;3.45;;
9783;SDS011;4931;44.874;-1.092;2023-05-10T02:38:39;24.52;;;3.28;;
9783;SDS011;4931;44.874;-1.092;2023-05-10T02:41:06;24.88;;;3.72;;
9783;SDS011;4931;44.874;-1.092;2023-05-10T02:43:33;26.25;;;3.15;;
9783;SDS011;4931;44.874;-1.092;2023-05-10T02:46:00;22.70;;;3.88;;
9783;SDS011;4931;44.874;-1.092;2023-05-10T02:48:26;24.27;;;4.13;;
9783;SDS011;4931;44.874;-1.092;2023-05-10T02:50:52;24.75;;;3.05;;
9783;SDS011;4931;44.874;-1.092;2023-05-10T02:53:22;27.40;;;3.97;;
9783;SDS011;4931;44.874;-1.092;2023-05-10T02:55:53;23.77;;;4.00;;
9783;SDS011;4931;44.874;-1.092;2023-05-10T02:58:23;24.50;;;3.92;;
9783;SDS011;4931;44.874;-1.092;2023-05-10T03:00:49;29.05;;;4.22;;
9783;SDS011;4931;44.874;-1.092;2023-05-10T03:03:14;23.25;;;3.00;;
9783;SDS011;4931;44.874;-1.092;2023-05-10T03:05:40;30.02;;;3.20;;
9783;SDS011;4931;44.874;-1.092;2023-05-10T03:08:05;23.90;;;3.45;;
9783;SDS011;4931;44.874;-1.092;2023-05-10T03:10:32;27.73;;;3.97;;
9783;SDS011;4931;44.874;-1.092;2023-05-10T03:15:37;25.35;;;3.78;;
9783;SDS011;4931;44.874;-1.092;2023-05-10T03:18:18;23.23;;;3.03;;
9783;SDS011;4931;44.874;-1.092;2023-05-10T03:25:43;27.63;;;4.28;;
9783;SDS011;4931;44.874;-1.092;2023-05-10T03:28:12;26.70;;;4.15;;
9783;SDS011;4931;44.874;-1.092;2023-05-10T03:30:40;25.35;;;3.90;;
9783;SDS011;4931;44.874;-1.092;2023-05-10T03:33:06;20.27;;;3.47;;
9783;SDS011;4931;44.874;-1.092;2023-05-10T03:35:32;16.60;;;3.25;;
9783;SDS011;4931;44.874;-1.092;2023-05-10T03:37:57;26.65;;;3.40;;
9783;SDS011;4931;44.874;-1.092;2023-05-10T03:40:23;18.45;;;3.75;;
9783;SDS011;4931;44.874;-1.092;2023-05-10T03:42:50;22.05;;;3.75;;
9783;SDS011;4931;44.874;-1.092;2023-05-10T03:45:15;27.10;;;4.18;;
9783;SDS011;4931;44.874;-1.092;2023-05-10T03:47:41;20.55;;;3.42;;
9783;SDS011;4931;44.874;-1.092;2023-05-10T03:50:07;29.40;;;3.55;;
9783;SDS011;4931;44.874;-1.092;2023-05-10T03:52:32;20.17;;;3.53;;
9783;SDS011;4931;44.874;-1.092;2023-05-10T03:54:58;27.38;;;3.80;;
9783;SDS011;4931;44.874;-1.092;2023-05-10T03:57:23;24.95;;;4.00;;
9783;SDS011;4931;44.874;-1.092;2023-05-10T03:59:49;26.98;;;4.05;;
9783;SDS011;4931;44.874;-1.092;2023-05-10T04:02:15;25.50;;;3.67;;
9783;SDS011;4931;44.874;-1.092;2023-05-10T04:04:40;25.27;;;3.80;;
9783;SDS011;4931;44.874;-1.092;2023-05-10T04:07:06;23.42;;;4.35;;
9783;SDS011;4931;44.874;-1.092;2023-05-10T04:09:31;21.55;;;3.42;;
9783;SDS011;4931;44.874;-1.092;2023-05-10T04:11:58;29.90;;;3.33;;
9783;SDS011;4931;44.874;-1.092;2023-05-10T04:14:24;20.35;;;3.17;;
9783;SDS011;4931;44.874;-1.092;2023-05-10T04:16:49;20.42;;;2.90;;
9783;SDS011;4931;44.874;-1.092;2023-05-10T04:19:15;23.02;;;3.35;;
9783;SDS011;4931;44.874;-1.092;2023-05-10T04:21:40;26.10;;;3.67;;
9783;SDS011;4931;44.874;-1.092;2023-05-10T04:24:06;27.60;;;4.00;;
9783;SDS011;4931;44.874;-1.092;2023-05-10T04:26:31;16.67;;;3.35;;
9783;SDS011;4931;44.874;-1.092;2023-05-10T04:28:57;24.10;;;3.20;;
9783;SDS011;4931;44.874;-1.092;2023-05-10T04:31:22;14.63;;;2.25;;
9783;SDS011;4931;44.874;-1.092;2023-05-10T04:33:47;20.83;;;2.88;;
9783;SDS011;4931;44.874;-1.092;2023-05-10T04:36:13;19.48;;;2.72;;
9783;SDS011;4931;44.874;-1.092;2023-05-10T04:38:38;20.52;;;3.30;;
9783;SDS011;4931;44.874;-1.092;2023-05-10T04:41:07;18.58;;;2.47;;
9783;SDS011;4931;44.874;-1.092;2023-05-10T04:43:34;20.80;;;3.20;;
9783;SDS011;4931;44.874;-1.092;2023-05-10T04:45:59;16.33;;;2.67;;
9783;SDS011;4931;44.874;-1.092;2023-05-10T04:48:25;17.90;;;2.80;;
9783;SDS011;4931;44.874;-1.092;2023-05-10T04:50:50;18.77;;;2.72;;
9783;SDS011;4931;44.874;-1.092;2023-05-10T04:53:16;12.25;;;2.05;;
9783;SDS011;4931;44.874;-1.092;2023-05-10T04:55:42;13.52;;;2.55;;
9783;SDS011;4931;44.874;-1.092;2023-05-10T04:58:07;12.20;;;2.70;;
9783;SDS011;4931;44.874;-1.092;2023-05-10T05:00:33;14.10;;;2.20;;
9783;SDS011;4931;44.874;-1.092;2023-05-10T05:02:58;12.65;;;2.08;;
9783;SDS011;4931;44.874;-1.092;2023-05-10T05:05:24;15.35;;;2.55;;
9783;SDS011;4931;44.874;-1.092;2023-05-10T05:07:50;17.02;;;2.58;;
9783;SDS011;4931;44.874;-1.092;2023-05-10T05:10:15;15.57;;;3.00;;
9783;SDS011;4931;44.874;-1.092;2023-05-10T05:12:41;13.38;;;2.55;;
9783;SDS011;4931;44.874;-1.092;2023-05-10T05:15:07;17.13;;;2.80;;
9783;SDS011;4931;44.874;-1.092;2023-05-10T05:17:34;13.50;;;2.53;;
9783;SDS011;4931;44.874;-1.092;2023-05-10T05:20:00;20.67;;;3.67;;
9783;SDS011;4931;44.874;-1.092;2023-05-10T05:22:25;15.77;;;3.50;;
9783;SDS011;4931;44.874;-1.092;2023-05-10T05:24:53;24.48;;;3.30;;
9783;SDS011;4931;44.874;-1.092;2023-05-10T05:27:19;15.93;;;3.10;;
9783;SDS011;4931;44.874;-1.092;2023-05-10T05:29:52;18.45;;;3.22;;
9783;SDS011;4931;44.874;-1.092;2023-05-10T05:32:18;19.90;;;2.95;;
9783;SDS011;4931;44.874;-1.092;2023-05-10T05:34:44;16.73;;;2.80;;
9783;SDS011;4931;44.874;-1.092;2023-05-10T05:37:14;20.45;;;3.33;;
9783;SDS011;4931;44.874;-1.092;2023-05-10T05:39:40;22.13;;;2.72;;
9783;SDS011;4931;44.874;-1.092;2023-05-10T05:42:06;17.50;;;2.88;;
9783;SDS011;4931;44.874;-1.092;2023-05-10T05:44:31;20.98;;;3.17;;
9783;SDS011;4931;44.874;-1.092;2023-05-10T05:46:57;19.88;;;3.15;;
9783;SDS011;4931;44.874;-1.092;2023-05-10T05:49:22;17.02;;;2.70;;
9783;SDS011;4931;44.874;-1.092;2023-05-10T05:51:48;21.73;;;3.03;;
9783;SDS011;4931;44.874;-1.092;2023-05-10T05:54:15;15.60;;;2.90;;
9783;SDS011;4931;44.874;-1.092;2023-05-10T05:56:41;19.83;;;2.85;;
9783;SDS011;4931;44.874;-1.092;2023-05-10T05:59:06;15.60;;;3.30;;
9783;SDS011;4931;44.874;-1.092;2023-05-10T06:01:32;18.88;;;3.38;;
9783;SDS011;4931;44.874;-1.092;2023-05-10T06:03:57;19.77;;;3.22;;
9783;SDS011;4931;44.874;-1.092;2023-05-10T06:06:22;18.40;;;3.22;;
9783;SDS011;4931;44.874;-1.092;2023-05-10T06:08:48;17.63;;;2.95;;
9783;SDS011;4931;44.874;-1.092;2023-05-10T06:11:13;27.13;;;3.88;;
9783;SDS011;4931;44.874;-1.092;2023-05-10T06:13:39;22.92;;;3.45;;
9783;SDS011;4931;44.874;-1.092;2023-05-10T06:16:05;17.40;;;3.08;;
9783;SDS011;4931;44.874;-1.092;2023-05-10T06:18:31;21.77;;;3.70;;
9783;SDS011;4931;44.874;-1.092;2023-05-10T06:20:56;23.02;;;3.85;;
9783;SDS011;4931;44.874;-1.092;2023-05-10T06:23:22;22.63;;;3.58;;
9783;SDS011;4931;44.874;-1.092;2023-05-10T06:25:48;19.30;;;3.10;;
9783;SDS011;4931;44.874;-1.092;2023-05-10T06:28:13;19.65;;;3.20;;
9783;SDS011;4931;44.874;-1.092;2023-05-10T06:30:39;21.30;;;3.38;;
9783;SDS011;4931;44.874;-1.092;2023-05-10T06:33:04;24.27;;;3.33;;
9783;SDS011;4931;44.874;-1.092;2023-05-10T06:35:30;20.23;;;3.30;;
9783;SDS011;4931;44.874;-1.092;2023-05-10T06:37:57;21.88;;;3.42;;
9783;SDS011;4931;44.874;-1.092;2023-05-10T06:40:22;27.77;;;4.10;;
9783;SDS011;4931;44.874;-1.092;2023-05-10T06:42:48;25.70;;;3.78;;
9783;SDS011;4931;44.874;-1.092;2023-05-10T06:45:14;23.27;;;4.30;;
9783;SDS011;4931;44.874;-1.092;2023-05-10T06:47:40;26.63;;;3.90;;
9783;SDS011;4931;44.874;-1.092;2023-05-10T06:50:09;26.95;;;3.72;;
9783;SDS011;4931;44.874;-1.092;2023-05-10T06:52:36;23.13;;;3.50;;
9783;SDS011;4931;44.874;-1.092;2023-05-10T06:55:03;23.23;;;3.28;;
9783;SDS011;4931;44.874;-1.092;2023-05-10T06:57:29;18.38;;;3.40;;
9783;SDS011;4931;44.874;-1.092;2023-05-10T06:59:55;22.73;;;3.50;;
9783;SDS011;4931;44.874;-1.092;2023-05-10T07:02:21;28.75;;;3.72;;
9783;SDS011;4931;44.874;-1.092;2023-05-10T07:04:47;27.20;;;3.55;;
9783;SDS011;4931;44.874;-1.092;2023-05-10T07:07:13;26.50;;;4.20;;
9783;SDS011;4931;44.874;-1.092;2023-05-10T07:09:39;26.55;;;4.18;;
9783;SDS011;4931;44.874;-1.092;2023-05-10T07:12:05;23.75;;;2.90;;
9783;SDS011;4931;44.874;-1.092;2023-05-10T07:14:30;29.92;;;3.63;;
9783;SDS011;4931;44.874;-1.092;2023-05-10T07:16:56;13.85;;;2.50;;
9783;SDS011;4931;44.874;-1.092;2023-05-10T07:19:21;16.52;;;2.78;;
9783;SDS011;4931;44.874;-1.092;2023-05-10T07:21:47;21.23;;;2.42;;
9783;SDS011;4931;44.874;-1.092;2023-05-10T07:24:12;21.20;;;2.78;;
9783;SDS011;4931;44.874;-1.092;2023-05-10T07:26:38;18.77;;;3.03;;
9783;SDS011;4931;44.874;-1.092;2023-05-10T07:29:03;22.98;;;3.08;;
9783;SDS011;4931;44.874;-1.092;2023-05-10T07:31:29;19.35;;;3.30;;
9783;SDS011;4931;44.874;-1.092;2023-05-10T07:33:54;19.40;;;3.28;;
9783;SDS011;4931;44.874;-1.092;2023-05-10T07:36:19;18.90;;;3.28;;
9783;SDS011;4931;44.874;-1.092;2023-05-10T07:38:45;16.60;;;2.70;;
9783;SDS011;4931;44.874;-1.092;2023-05-10T07:41:11;22.60;;;2.92;;
9783;SDS011;4931;44.874;-1.092;2023-05-10T07:43:37;18.13;;;2.75;;
9783;SDS011;4931;44.874;-1.092;2023-05-10T07:46:03;15.75;;;3.30;;
9783;SDS011;4931;44.874;-1.092;2023-05-10T07:48:28;21.13;;;2.97;;
9783;SDS011;4931;44.874;-1.092;2023-05-10T07:50:54;17.73;;;3.28;;
9783;SDS011;4931;44.874;-1.092;2023-05-10T07:53:19;12.85;;;2.00;;
9783;SDS011;4931;44.874;-1.092;2023-05-10T07:55:49;17.00;;;2.83;;
9783;SDS011;4931;44.874;-1.092;2023-05-10T08:00:41;18.35;;;2.33;;
9783;SDS011;4931;44.874;-1.092;2023-05-10T08:03:06;14.55;;;2.22;;
9783;SDS011;4931;44.874;-1.092;2023-05-10T08:05:32;17.90;;;3.67;;
9783;SDS011;4931;44.874;-1.092;2023-05-10T08:07:57;12.70;;;2.20;;
9783;SDS011;4931;44.874;-1.092;2023-05-10T08:10:24;16.90;;;2.40;;
9783;SDS011;4931;44.874;-1.092;2023-05-10T08:12:50;10.05;;;2.40;;
9783;SDS011;4931;44.874;-1.092;2023-05-10T08:15:16;11.70;;;2.13;;
9783;SDS011;4931;44.874;-1.092;2023-05-10T08:17:41;11.18;;;1.73;;
9783;SDS011;4931;44.874;-1.092;2023-05-10T08:20:08;22.67;;;3.05;;
9783;SDS011;4931;44.874;-1.092;2023-05-10T08:22:34;12.65;;;2.33;;
9783;SDS011;4931;44.874;-1.092;2023-05-10T08:24:59;11.07;;;2.08;;
9783;SDS011;4931;44.874;-1.092;2023-05-10T08:27:25;14.13;;;2.40;;
9783;SDS011;4931;44.874;-1.092;2023-05-10T08:29:50;17.98;;;2.47;;
9783;SDS011;4931;44.874;-1.092;2023-05-10T08:32:16;14.55;;;2.45;;
9783;SDS011;4931;44.874;-1.092;2023-05-10T08:34:42;19.60;;;2.38;;
9783;SDS011;4931;44.874;-1.092;2023-05-10T08:37:07;17.20;;;2.72;;
9783;SDS011;4931;44.874;-1.092;2023-05-10T08:39:36;17.08;;;2.72;;
9783;SDS011;4931;44.874;-1.092;2023-05-10T08:42:02;18.75;;;2.95;;
9783;SDS011;4931;44.874;-1.092;2023-05-10T08:44:30;14.05;;;2.55;;
9783;SDS011;4931;44.874;-1.092;2023-05-10T08:46:57;23.45;;;3.00;;
9783;SDS011;4931;44.874;-1.092;2023-05-10T08:49:27;23.83;;;3.60;;
9783;SDS011;4931;44.874;-1.092;2023-05-10T08:51:56;18.50;;;3.33;;
9783;SDS011;4931;44.874;-1.092;2023-05-10T08:54:25;20.27;;;3.00;;
9783;SDS011;4931;44.874;-1.092;2023-05-10T08:56:50;22.98;;;3.25;;
9783;SDS011;4931;44.874;-1.092;2023-05-10T08:59:16;21.67;;;3.55;;
9783;SDS011;4931;44.874;-1.092;2023-05-10T09:01:42;21.67;;;3.25;;
9783;SDS011;4931;44.874;-1.092;2023-05-10T09:04:09;23.05;;;3.28;;
9783;SDS011;4931;44.874;-1.092;2023-05-10T09:06:35;20.30;;;2.80;;
9783;SDS011;4931;44.874;-1.092;2023-05-10T09:09:01;17.13;;;3.10;;
9783;SDS011;4931;44.874;-1.092;2023-05-10T09:11:28;14.52;;;2.17;;
9783;SDS011;4931;44.874;-1.092;2023-05-10T09:13:55;14.57;;;2.25;;
9783;SDS011;4931;44.874;-1.092;2023-05-10T09:16:21;11.32;;;2.50;;
9783;SDS011;4931;44.874;-1.092;2023-05-10T09:18:47;21.48;;;3.47;;
9783;SDS011;4931;44.874;-1.092;2023-05-10T09:21:14;25.45;;;2.90;;
9783;SDS011;4931;44.874;-1.092;2023-05-10T09:23:43;17.73;;;2.80;;
9783;SDS011;4931;44.874;-1.092;2023-05-10T09:26:10;15.68;;;2.95;;
9783;SDS011;4931;44.874;-1.092;2023-05-10T09:28:55;21.52;;;3.08;;
9783;SDS011;4931;44.874;-1.092;2023-05-10T09:31:22;16.42;;;2.72;;
9783;SDS011;4931;44.874;-1.092;2023-05-10T09:33:48;22.63;;;2.65;;
9783;SDS011;4931;44.874;-1.092;2023-05-10T09:36:14;26.58;;;3.55;;
9783;SDS011;4931;44.874;-1.092;2023-05-10T09:41:17;13.15;;;2.08;;
9783;SDS011;4931;44.874;-1.092;2023-05-10T09:43:47;17.92;;;2.22;;
9783;SDS011;4931;44.874;-1.092;2023-05-10T09:46:13;16.58;;;2.70;;
9783;SDS011;4931;44.874;-1.092;2023-05-10T09:48:43;12.90;;;2.25;;
9783;SDS011;4931;44.874;-1.092;2023-05-10T09:53:43;15.98;;;2.67;;
9783;SDS011;4931;44.874;-1.092;2023-05-10T09:56:09;11.48;;;1.77;;
9783;SDS011;4931;44.874;-1.092;2023-05-10T09:58:36;11.15;;;2.20;;
9783;SDS011;4931;44.874;-1.092;2023-05-10T10:01:03;11.10;;;1.85;;
9783;SDS011;4931;44.874;-1.092;2023-05-10T10:03:28;12.82;;;1.67;;
9783;SDS011;4931;44.874;-1.092;2023-05-10T10:05:55;11.85;;;2.65;;
9783;SDS011;4931;44.874;-1.092;2023-05-10T10:08:21;9.02;;;1.55;;
9783;SDS011;4931;44.874;-1.092;2023-05-10T10:10:46;8.68;;;2.00;;
9783;SDS011;4931;44.874;-1.092;2023-05-10T10:13:12;10.73;;;1.50;;
9783;SDS011;4931;44.874;-1.092;2023-05-10T10:15:38;7.82;;;1.20;;
9783;SDS011;4931;44.874;-1.092;2023-05-10T10:18:04;18.08;;;6.13;;
9783;SDS011;4931;44.874;-1.092;2023-05-10T10:20:30;7.28;;;1.50;;
9783;SDS011;4931;44.874;-1.092;2023-05-10T10:22:56;8.75;;;1.55;;
9783;SDS011;4931;44.874;-1.092;2023-05-10T10:25:22;12.70;;;1.60;;
9783;SDS011;4931;44.874;-1.092;2023-05-10T10:35:29;12.32;;;2.70;;
9783;SDS011;4931;44.874;-1.092;2023-05-10T10:37:56;14.02;;;2.47;;
9783;SDS011;4931;44.874;-1.092;2023-05-10T10:40:24;13.25;;;2.35;;
9783;SDS011;4931;44.874;-1.092;2023-05-10T10:42:51;15.55;;;2.60;;
9783;SDS011;4931;44.874;-1.092;2023-05-10T10:45:17;14.60;;;2.60;;
9783;SDS011;4931;44.874;-1.092;2023-05-10T10:47:42;14.27;;;2.30;;
9783;SDS011;4931;44.874;-1.092;2023-05-10T10:50:10;12.77;;;2.20;;
9783;SDS011;4931;44.874;-1.092;2023-05-10T10:52:40;15.25;;;2.40;;
9783;SDS011;4931;44.874;-1.092;2023-05-10T10:55:08;14.05;;;2.70;;
9783;SDS011;4931;44.874;-1.092;2023-05-10T11:02:45;13.45;;;2.35;;
9783;SDS011;4931;44.874;-1.092;2023-05-10T11:05:33;14.48;;;2.70;;
9783;SDS011;4931;44.874;-1.092;2023-05-10T11:08:20;20.40;;;2.63;;
9783;SDS011;4931;44.874;-1.092;2023-05-10T11:18:57;20.48;;;2.45;;
9783;SDS011;4931;44.874;-1.092;2023-05-10T11:21:27;16.70;;;2.90;;
9783;SDS011;4931;44.874;-1.092;2023-05-10T11:23:53;20.55;;;2.70;;
9783;SDS011;4931;44.874;-1.092;2023-05-10T11:26:34;17.60;;;2.53;;
9783;SDS011;4931;44.874;-1.092;2023-05-10T11:29:00;20.83;;;2.97;;
9783;SDS011;4931;44.874;-1.092;2023-05-10T11:31:28;16.13;;;2.45;;
9783;SDS011;4931;44.874;-1.092;2023-05-10T11:33:54;18.23;;;2.65;;
9783;SDS011;4931;44.874;-1.092;2023-05-10T11:36:25;13.33;;;2.70;;
9783;SDS011;4931;44.874;-1.092;2023-05-10T11:38:52;14.50;;;2.45;;
9783;SDS011;4931;44.874;-1.092;2023-05-10T11:41:18;19.67;;;3.10;;
9783;SDS011;4931;44.874;-1.092;2023-05-10T11:43:51;15.60;;;2.25;;
9783;SDS011;4931;44.874;-1.092;2023-05-10T11:46:21;15.23;;;2.58;;
9783;SDS011;4931;44.874;-1.092;2023-05-10T11:48:51;13.10;;;2.53;;
9783;SDS011;4931;44.874;-1.092;2023-05-10T11:51:23;18.05;;;3.20;;
9783;SDS011;4931;44.874;-1.092;2023-05-10T11:53:49;13.65;;;2.72;;
9783;SDS011;4931;44.874;-1.092;2023-05-10T11:56:19;18.05;;;2.92;;
9783;SDS011;4931;44.874;-1.092;2023-05-10T11:58:52;17.27;;;3.33;;
9783;SDS011;4931;44.874;-1.092;2023-05-10T12:01:18;16.98;;;2.95;;
9783;SDS011;4931;44.874;-1.092;2023-05-10T12:03:45;19.40;;;3.42;;
9783;SDS011;4931;44.874;-1.092;2023-05-10T12:06:11;16.00;;;2.45;;
9783;SDS011;4931;44.874;-1.092;2023-05-10T12:08:43;16.88;;;2.90;;
9783;SDS011;4931;44.874;-1.092;2023-05-10T12:11:11;17.17;;;2.60;;
9783;SDS011;4931;44.874;-1.092;2023-05-10T12:13:39;17.25;;;2.92;;
9783;SDS011;4931;44.874;-1.092;2023-05-10T12:16:12;15.40;;;3.30;;
9783;SDS011;4931;44.874;-1.092;2023-05-10T12:18:41;15.02;;;3.10;;
9783;SDS011;4931;44.874;-1.092;2023-05-10T12:21:12;18.73;;;2.80;;
9783;SDS011;4931;44.874;-1.092;2023-05-10T12:23:38;18.35;;;2.65;;
9783;SDS011;4931;44.874;-1.092;2023-05-10T12:26:05;16.73;;;2.60;;
9783;SDS011;4931;44.874;-1.092;2023-05-10T12:28:31;18.67;;;2.45;;
9783;SDS011;4931;44.874;-1.092;2023-05-10T12:30:58;8.43;;;2.30;;
9783;SDS011;4931;44.874;-1.092;2023-05-10T12:33:25;18.15;;;3.00;;
9783;SDS011;4931;44.874;-1.092;2023-05-10T12:35:51;15.80;;;2.33;;
9783;SDS011;4931;44.874;-1.092;2023-05-10T12:38:27;13.60;;;2.60;;
9783;SDS011;4931;44.874;-1.092;2023-05-10T12:41:02;20.60;;;2.60;;
9783;SDS011;4931;44.874;-1.092;2023-05-10T12:43:28;13.55;;;2.13;;
9783;SDS011;4931;44.874;-1.092;2023-05-10T12:45:55;15.02;;;2.08;;
9783;SDS011;4931;44.874;-1.092;2023-05-10T12:48:21;16.92;;;2.22;;
9783;SDS011;4931;44.874;-1.092;2023-05-10T12:50:46;14.07;;;2.28;;
9783;SDS011;4931;44.874;-1.092;2023-05-10T12:53:13;15.57;;;2.05;;
9783;SDS011;4931;44.874;-1.092;2023-05-10T12:55:40;15.82;;;2.63;;
9783;SDS011;4931;44.874;-1.092;2023-05-10T12:58:06;14.07;;;2.50;;
9783;SDS011;4931;44.874;-1.092;2023-05-10T13:00:32;11.60;;;2.20;;
9783;SDS011;4931;44.874;-1.092;2023-05-10T13:02:57;10.77;;;2.55;;
9783;SDS011;4931;44.874;-1.092;2023-05-10T13:05:23;9.73;;;1.73;;
9783;SDS011;4931;44.874;-1.092;2023-05-10T13:07:48;12.32;;;2.42;;
9783;SDS011;4931;44.874;-1.092;2023-05-10T13:10:14;11.20;;;1.90;;
9783;SDS011;4931;44.874;-1.092;2023-05-10T13:12:39;12.20;;;2.40;;
9783;SDS011;4931;44.874;-1.092;2023-05-10T13:15:05;17.48;;;2.92;;
9783;SDS011;4931;44.874;-1.092;2023-05-10T13:17:31;18.27;;;3.13;;
9783;SDS011;4931;44.874;-1.092;2023-05-10T13:19:57;14.18;;;2.40;;
9783;SDS011;4931;44.874;-1.092;2023-05-10T13:22:22;16.50;;;3.00;;
9783;SDS011;4931;44.874;-1.092;2023-05-10T13:24:48;12.68;;;2.78;;
9783;SDS011;4931;44.874;-1.092;2023-05-10T13:27:13;16.20;;;2.55;;
9783;SDS011;4931;44.874;-1.092;2023-05-10T13:29:38;18.15;;;2.70;;
9783;SDS011;4931;44.874;-1.092;2023-05-10T13:32:04;14.32;;;2.53;;
9783;SDS011;4931;44.874;-1.092;2023-05-10T13:34:30;16.50;;;2.33;;
9783;SDS011;4931;44.874;-1.092;2023-05-10T13:36:55;16.73;;;2.42;;
9783;SDS011;4931;44.874;-1.092;2023-05-10T13:39:21;13.63;;;2.17;;
9783;SDS011;4931;44.874;-1.092;2023-05-10T13:41:47;12.27;;;2.47;;
9783;SDS011;4931;44.874;-1.092;2023-05-10T13:44:13;13.68;;;2.47;;
9783;SDS011;4931;44.874;-1.092;2023-05-10T13:46:39;14.85;;;2.50;;
9783;SDS011;4931;44.874;-1.092;2023-05-10T13:49:05;17.75;;;2.33;;
9783;SDS011;4931;44.874;-1.092;2023-05-10T13:51:33;14.57;;;3.05;;
9783;SDS011;4931;44.874;-1.092;2023-05-10T13:53:58;10.90;;;2.38;;
9783;SDS011;4931;44.874;-1.092;2023-05-10T13:56:24;12.35;;;2.05;;
9783;SDS011;4931;44.874;-1.092;2023-05-10T13:58:49;14.88;;;2.58;;
9783;SDS011;4931;44.874;-1.092;2023-05-10T14:01:15;12.90;;;2.35;;
9783;SDS011;4931;44.874;-1.092;2023-05-10T14:03:41;14.50;;;2.55;;
9783;SDS011;4931;44.874;-1.092;2023-05-10T14:06:06;13.63;;;2.15;;
9783;SDS011;4931;44.874;-1.092;2023-05-10T14:08:33;13.27;;;2.63;;
9783;SDS011;4931;44.874;-1.092;2023-05-10T14:10:59;10.20;;;2.10;;
9783;SDS011;4931;44.874;-1.092;2023-05-10T14:13:25;10.77;;;2.00;;
9783;SDS011;4931;44.874;-1.092;2023-05-10T14:15:50;12.23;;;1.73;;
9783;SDS011;4931;44.874;-1.092;2023-05-10T14:18:17;14.57;;;2.30;;
9783;SDS011;4931;44.874;-1.092;2023-05-10T14:20:43;14.00;;;2.00;;
9783;SDS011;4931;44.874;-1.092;2023-05-10T14:23:08;17.02;;;2.70;;
9783;SDS011;4931;44.874;-1.092;2023-05-10T14:25:34;14.07;;;2.15;;
9783;SDS011;4931;44.874;-1.092;2023-05-10T14:27:59;10.77;;;2.00;;
9783;SDS011;4931;44.874;-1.092;2023-05-10T14:30:25;14.85;;;2.65;;
9783;SDS011;4931;44.874;-1.092;2023-05-10T14:32:50;9.48;;;2.00;;
9783;SDS011;4931;44.874;-1.092;2023-05-10T14:35:18;13.35;;;2.53;;
9783;SDS011;4931;44.874;-1.092;2023-05-10T14:37:44;12.10;;;1.95;;
9783;SDS011;4931;44.874;-1.092;2023-05-10T14:40:10;10.88;;;1.60;;
9783;SDS011;4931;44.874;-1.092;2023-05-10T14:42:36;14.15;;;2.00;;
9783;SDS011;4931;44.874;-1.092;2023-05-10T14:45:01;15.98;;;2.30;;
9783;SDS011;4931;44.874;-1.092;2023-05-10T14:47:27;15.45;;;1.98;;
9783;SDS011;4931;44.874;-1.092;2023-05-10T14:49:52;8.48;;;2.10;;
9783;SDS011;4931;44.874;-1.092;2023-05-10T14:52:18;14.07;;;1.58;;
9783;SDS011;4931;44.874;-1.092;2023-05-10T14:54:43;13.38;;;2.60;;
9783;SDS011;4931;44.874;-1.092;2023-05-10T14:57:08;16.00;;;2.20;;
9783;SDS011;4931;44.874;-1.092;2023-05-10T14:59:34;13.05;;;2.03;;
9783;SDS011;4931;44.874;-1.092;2023-05-10T15:02:00;12.35;;;2.03;;
9783;SDS011;4931;44.874;-1.092;2023-05-10T15:04:25;11.30;;;1.83;;
9783;SDS011;4931;44.874;-1.092;2023-05-10T15:06:51;11.90;;;2.28;;
9783;SDS011;4931;44.874;-1.092;2023-05-10T15:09:17;19.38;;;5.10;;
9783;SDS011;4931;44.874;-1.092;2023-05-10T15:11:42;17.05;;;3.53;;
9783;SDS011;4931;44.874;-1.092;2023-05-10T15:14:09;17.65;;;3.88;;
9783;SDS011;4931;44.874;-1.092;2023-05-10T15:16:34;15.38;;;2.60;;
9783;SDS011;4931;44.874;-1.092;2023-05-10T15:19:00;15.75;;;2.58;;
9783;SDS011;4931;44.874;-1.092;2023-05-10T15:21:25;21.13;;;2.97;;
9783;SDS011;4931;44.874;-1.092;2023-05-10T15:23:52;18.33;;;3.38;;
9783;SDS011;4931;44.874;-1.092;2023-05-10T15:26:17;15.38;;;3.15;;
9783;SDS011;4931;44.874;-1.092;2023-05-10T15:28:43;16.92;;;2.63;;
9783;SDS011;4931;44.874;-1.092;2023-05-10T15:31:08;19.75;;;3.33;;
9783;SDS011;4931;44.874;-1.092;2023-05-10T15:33:35;24.08;;;2.80;;